Red Rock, Arizona
Current Conditions -  °F | °C
As of 3:35 AM on Friday 21 Nov 2014 (Local Time) from KAVQ Reporting Station
Clear Clear  
Wind Chill: 50°   Ceiling: Unl
Heat Index: 50°   Visibility: 10mi
Dew Point: 19°   Wind: 9mph
Humidity: 29%   Direction: 100°E
Pressure: 29.94"   Gusts: NA
Location:  32.58°N, 111.39°W
Report Text: KAVQ 211035Z AUTO 10008KT 10SM CLR 10/M07 A2994 RMK AO2 T01021074
Loading
Personal Weather Stations






























Interactive Weather Map New forecast layout! Learn more

10-Day Weather Forecast

Advertisements
Track Severe Weather on mobile